• Join FlightAware (Why Join?)
  • Login
  • US Flag 
03:28AM EDT


 

Airport Tracker/Info


-or-


 

Live Flight TrackerFlight Track Log ✈ CHQ5017 ✈ 24-Jun-2013 ✈ KAZO - KORD

Flight Track Log - Related Links

Times and Time Zones

All times are in EDT time to prevent confusion due to time zone crossing. See the CHQ5017 flight status page for this flight to view local times or setup timezone preferences in your user account.

Time Position Orientation Groundspeed Altitude Reporting Facility
EDT Latitude Longitude Course Direction KTS MPH feet Rate Location/Type
05:24PM 42.1631 -85.7417 266° West 218 251 9,900  Level Chicago Center
05:25PM 42.1589 -85.8439 267° West 277 319 10,100  Climbing Chicago Center
05:26PM 42.1522 -85.9742 266° West 318 366 10,000 -60 Descending Chicago Center
05:27PM 42.1386 -86.0850 257° West  Level FlightAware Approximate
05:27PM 42.1458 -86.0967 266° West 327 376 10,000  Level Chicago Center
05:28PM 42.1354 -86.1757 273° West  Level FlightAware Approximate
05:28PM 42.1458 -86.2353 270° West 314 361 10,000  Level Chicago Center
05:29PM 42.1458 -86.3539 270° West 316 364 10,000 -60 Level Chicago Center
05:30PM 42.0986 -86.4428 234° Southwest 287 330 9,900 -540 Descending Chicago Center
05:31PM 42.0586 -86.5153 233° Southwest 248 285 9,000 -900 Descending Chicago Center
05:32PM 42.0172 -86.5903 233° Southwest 249 287 8,100 -480 Descending Chicago Center
05:33PM 41.9775 -86.6667 235° Southwest 250 288 8,100  Level Chicago Center
05:34PM 41.9794 -86.7633 272° West 243 280 8,100  Level Chicago Center
05:35PM 41.9806 -86.8556 271° West 246 283 8,100  Level Chicago Center
05:36PM 41.9817 -86.9656 271° West 248 285 8,100 -60 Level Chicago Center
05:37PM 41.9822 -87.0581 270° West 250 288 8,000 -60 Descending Chicago Center
05:38PM 41.9825 -87.1511 270° West 252 290 8,000  Level Chicago Center
05:39PM 41.9836 -87.2444 271° West 251 289 8,000 -180 Level Chicago Center
05:40PM 41.9825 -87.3392 269° West 256 295 7,700 -600 Descending Chicago Center
05:41PM 41.9831 -87.4456 270° West 243 280 6,800 -900 Descending Chicago Center
05:42PM 41.9836 -87.5256 271° West 223 257 5,900 -1,020 Descending Chicago Center
05:43PM 41.9833 -87.5925 270° West 190 219 4,800 -1,020 Descending Chicago Center
05:44PM 41.9844 -87.6547 271° West 179 206 3,900 -900 Descending Chicago Center